Ada, OH (45810)

10:51 AM EST on February 01, 2015 (GMT -0500)
Ada | Change Station
CLOSE
Current Station
Personal Weather Station
Location: Ada, OH
Elevation: 912 ft
Nearby Weather Stations
Active Advisory: Winter Storm Warning Active Notice: Local Storm Report

Elev 912 ft 40.82 °N, 83.86 °W | Updated 1 second ago

Snow
Snow
33.3 °F
Feels Like 28 °F
N
6.0
Wind Variable Wind from North
Gusts 7.0 mph

Today
High -- | Low -- °F
--% Chance of Precip.
Yesterday
High -- | Low -- °F
Precip. -- in
7:45 AM 5:52 PM
Waxing Gibbous, 95% visible
Pressure 29.96 in
Visibility 5.0 miles
Clouds Scattered Clouds 600 ft
Overcast 3900 ft
Windchill 28 °F
Dew Point 32 °F
Humidity 97%
Rainfall 0.00 in
Snow Depth Not available.
UV 1 out of 12
Pollen .10 out of 12
Air Quality Not available.
Flu Activity Not available.
SPECI KAOH 011519Z AUTO 12010KT 5SM BR SCT006 OVC039 02/00 A2996 RMK AO2 SNE1455 PRESFR P0000 T00170000

More Conditions Fewer Conditions

Pressure 29.96 in
Visibility 5.0 miles
Clouds Scattered Clouds 600 ft
Overcast 3900 ft
Windchill 28 °F
Dew Point 32 °F
Humidity 97%
Rainfall 0.00 in
Snow Depth Not available.
UV 1 out of 12
Pollen .10 out of 12
Air Quality Not available.
Flu Activity Not available.
SPECI KAOH 011519Z AUTO 12010KT 5SM BR SCT006 OVC039 02/00 A2996 RMK AO2 SNE1455 PRESFR P0000 T00170000

More Conditions Fewer Conditions

10-Day Weather Forecast

Almanac

Astronomy

Feb. 01, 2015 Rise Set
Actual Time
Civil Twilight
Nautical Twilight
Astronomical Twilight
Moon
Length of Visible Light
Length of Day
Tomorrow will be .
, % of the Moon is Illuminated

Today's Extremes

State Highs State Lows

Community

WunderPhotos

Upload Photos

1,792,362 photos uploaded!

WunderBlogs® & News

Nearby

Air Quality

  Air Quality AQ Index Pollutant
Not available.

Snow Depth

Station Depth Elevation

Earthquake Activity

City Distance Mag. Time & Date
Minimum magnitude displayed is 2.5.

Coastal Water Temperatures

Place Temperature

Nearby Weather Stations